Track Потылицын Иван

Time Latitude Longitude Accuracy (66% radius in meters) Altitude (meters) Speed (km/hour) Bearing (degrees) Battery (%) GPS flag
10:54:49 51.753657 39.189510 12 182.13360878578 0 61.242198944092 71 1 delete
10:54:37 51.753657 39.189510 12 181.68957616088 0 61.242198944092 71 1 delete
10:54:25 51.753657 39.189510 8 181.79990225902 0 61.242198944092 71 1 delete
10:54:16 51.753657 39.189510 4 181.9859279184 0 61.242198944092 71 1 delete
10:54:04 51.753657 39.189510 12 182.37944454348 0 61.242198944092 71 1 delete
10:53:52 51.753657 39.189510 8 182.72286347227 0 61.242198944092 71 1 delete
10:53:40 51.753657 39.189510 6 182.84232006268 0 61.242198944092 71 1 delete
10:53:28 51.753657 39.189510 8 182.94991030066 0 61.242198944092 71 1 delete
10:53:13 51.753657 39.189510 12 183.05403524065 0 61.242198944092 71 1 delete
10:53:01 51.753657 39.189510 6 183.10686879412 0 61.242198944092 71 1 delete
10:52:49 51.753657 39.189510 4 183.14310224823 0 61.242198944092 71 1 delete
10:52:37 51.753657 39.189510 12 183.24386372941 0 61.242198944092 71 1 delete
10:52:25 51.753657 39.189510 8 182.99525470755 0 61.242198944092 71 1 delete
10:52:13 51.753657 39.189510 4 182.82515566089 0 61.242198944092 71 1 delete
10:52:01 51.753657 39.189510 12 182.55997670755 0 61.242198944092 71 1 delete
10:51:49 51.753657 39.189510 12 182.1458563322 0 61.242198944092 71 1 delete
10:51:37 51.753657 39.189510 8 182.03834109052 0 61.242198944092 71 1 delete
10:51:25 51.753657 39.189510 12 182.00339081454 0 61.242198944092 71 1 delete
10:51:13 51.753657 39.189510 8 181.81523337251 0 61.242198944092 71 1 delete
10:51:01 51.753657 39.189510 16 181.57727138113 0 61.242198944092 71 1 delete
10:50:49 51.753657 39.189510 12 181.30990262787 0 61.242198944092 71 1 delete
10:50:34 51.753657 39.189510 12 181.08200004005 0 61.242198944092 71 1 delete
10:50:25 51.753657 39.189510 4 181.15309801852 0 61.242198944092 71 1 delete
10:50:10 51.753657 39.189510 6 181.18484924857 0 61.242198944092 71 1 delete
10:49:58 51.753657 39.189510 6 181.30292296893 0 61.242198944092 71 1 delete
10:49:46 51.753657 39.189510 8 181.52191662932 0 61.242198944092 71 1 delete
10:49:34 51.753657 39.189510 12 181.75925941597 0 61.242198944092 71 1 delete
10:49:25 51.753657 39.189510 6 181.97175895478 0 61.242198944092 71 1 delete
10:49:13 51.753657 39.189510 6 182.29407099313 0 61.242198944092 71 1 delete
10:49:01 51.753657 39.189510 12 182.39101308278 0 61.242198944092 71 1 delete
10:48:50 51.753657 39.189510 6 182.34917168022 0 61.242198944092 71 1 delete
10:48:38 51.753657 39.189510 8 182.29328743723 0 61.242198944092 71 1 delete
10:48:26 51.753657 39.189510 8 182.15635975066 0 61.242198944092 71 1 delete
10:48:14 51.753657 39.189510 6 182.08662024147 0 61.242198944092 71 1 delete
10:48:02 51.753657 39.189510 4 181.98297997151 0 61.242198944092 71 1 delete
10:47:50 51.753657 39.189510 6 181.86317123068 0 61.242198944092 71 1 delete
10:47:38 51.753657 39.189510 8 181.72351396601 0 61.242198944092 71 1 delete
10:47:26 51.753657 39.189510 8 181.40988610862 0 61.242198944092 71 1 delete
10:47:14 51.753657 39.189510 12 181.10702587464 0 61.242198944092 71 1 delete
10:47:02 51.753657 39.189510 12 180.8585730204 0 61.242198944092 71 1 delete
10:46:50 51.753657 39.189510 12 180.28101663103 0 61.242198944092 71 1 delete
10:46:38 51.753657 39.189510 6 180.23104908924 0 61.242198944092 71 1 delete
10:46:26 51.753657 39.189510 12 180.33122848399 0 61.242198944092 71 1 delete
10:46:11 51.753657 39.189510 8 179.8817030355 0 61.242198944092 71 1 delete
10:45:59 51.753657 39.189510 8 179.40123638847 0 61.242198944092 71 1 delete
10:45:47 51.753657 39.189510 12 179.17078252194 0 61.242198944092 71 1 delete
10:45:35 51.753657 39.189510 6 178.9160723944 0 61.242198944092 71 1 delete
10:45:23 51.753657 39.189510 8 178.51711771828 0 61.242198944092 71 1 delete
10:45:08 51.753657 39.189510 16 178.17172020614 0 61.242198944092 71 1 delete
10:44:59 51.753657 39.189510 8 178.76369285443 0 61.242198944092 71 1 delete